sensor_id;sensor_type;location;lat;lon;timestamp;temperature;humidity
66094;DHT22;52876;49.394;10.892;2023-02-01T00:05:08;3.30;99.90
66094;DHT22;52876;49.394;10.892;2023-02-01T00:19:49;3.50;99.90
66094;DHT22;52876;49.394;10.892;2023-02-01T00:22:16;3.30;99.90
66094;DHT22;52876;49.394;10.892;2023-02-01T00:27:09;3.30;99.90
66094;DHT22;52876;49.394;10.892;2023-02-01T00:39:22;3.40;99.90
66094;DHT22;52876;49.394;10.892;2023-02-01T00:41:47;3.30;99.90
66094;DHT22;52876;49.394;10.892;2023-02-01T00:56:26;3.50;99.90
66094;DHT22;52876;49.394;10.892;2023-02-01T01:01:19;3.30;99.90
66094;DHT22;52876;49.394;10.892;2023-02-01T01:03:46;3.50;99.90
66094;DHT22;52876;49.394;10.892;2023-02-01T01:06:15;3.50;99.90
66094;DHT22;52876;49.394;10.892;2023-02-01T01:08:42;3.60;99.90
66094;DHT22;52876;49.394;10.892;2023-02-01T01:11:12;3.50;99.90
66094;DHT22;52876;49.394;10.892;2023-02-01T01:13:40;3.60;99.90
66094;DHT22;52876;49.394;10.892;2023-02-01T01:16:07;3.60;99.90
66094;DHT22;52876;49.394;10.892;2023-02-01T01:18:34;3.50;99.90
66094;DHT22;52876;49.394;10.892;2023-02-01T01:21:00;3.40;99.90
66094;DHT22;52876;49.394;10.892;2023-02-01T01:23:27;3.40;99.90
66094;DHT22;52876;49.394;10.892;2023-02-01T01:25:53;3.40;99.90
66094;DHT22;52876;49.394;10.892;2023-02-01T01:30:46;3.30;99.90
66094;DHT22;52876;49.394;10.892;2023-02-01T01:42:58;3.40;99.90
66094;DHT22;52876;49.394;10.892;2023-02-01T01:45:26;3.40;99.90
66094;DHT22;52876;49.394;10.892;2023-02-01T01:47:55;3.30;99.90
66094;DHT22;52876;49.394;10.892;2023-02-01T01:50:25;3.40;99.90
66094;DHT22;52876;49.394;10.892;2023-02-01T01:52:53;3.40;99.90
66094;DHT22;52876;49.394;10.892;2023-02-01T01:55:22;3.50;99.90
66094;DHT22;52876;49.394;10.892;2023-02-01T01:57:54;3.40;99.90
66094;DHT22;52876;49.394;10.892;2023-02-01T02:02:59;3.30;99.90
66094;DHT22;52876;49.394;10.892;2023-02-01T02:05:26;3.30;99.90
66094;DHT22;52876;49.394;10.892;2023-02-01T02:07:53;3.40;99.90
66094;DHT22;52876;49.394;10.892;2023-02-01T02:12:48;3.10;99.90
66094;DHT22;52876;49.394;10.892;2023-02-01T02:15:15;3.20;99.90
66094;DHT22;52876;49.394;10.892;2023-02-01T02:17:47;3.20;99.90
66094;DHT22;52876;49.394;10.892;2023-02-01T02:20:39;3.30;99.90
66094;DHT22;52876;49.394;10.892;2023-02-01T02:23:35;3.30;99.90
66094;DHT22;52876;49.394;10.892;2023-02-01T02:26:27;3.30;99.90
66094;DHT22;52876;49.394;10.892;2023-02-01T02:29:26;3.30;99.90
66094;DHT22;52876;49.394;10.892;2023-02-01T02:32:14;3.20;99.90
66094;DHT22;52876;49.394;10.892;2023-02-01T02:34:46;3.30;99.90
66094;DHT22;52876;49.394;10.892;2023-02-01T02:37:18;3.30;99.90
66094;DHT22;52876;49.394;10.892;2023-02-01T02:39:53;3.30;99.90
66094;DHT22;52876;49.394;10.892;2023-02-01T02:42:27;3.30;99.90
66094;DHT22;52876;49.394;10.892;2023-02-01T02:44:56;3.30;99.90
66094;DHT22;52876;49.394;10.892;2023-02-01T02:47:30;3.30;99.90
66094;DHT22;52876;49.394;10.892;2023-02-01T02:50:15;3.30;99.90
66094;DHT22;52876;49.394;10.892;2023-02-01T02:52:50;3.20;99.90
66094;DHT22;52876;49.394;10.892;2023-02-01T02:55:17;3.20;99.90
66094;DHT22;52876;49.394;10.892;2023-02-01T02:57:45;3.30;99.90
66094;DHT22;52876;49.394;10.892;2023-02-01T03:00:13;3.20;99.90
66094;DHT22;52876;49.394;10.892;2023-02-01T03:02:41;3.10;99.90
66094;DHT22;52876;49.394;10.892;2023-02-01T03:05:08;3.00;99.90
66094;DHT22;52876;49.394;10.892;2023-02-01T03:08:04;2.90;99.90
66094;DHT22;52876;49.394;10.892;2023-02-01T03:10:38;2.90;99.90
66094;DHT22;52876;49.394;10.892;2023-02-01T03:13:09;3.10;99.90
66094;DHT22;52876;49.394;10.892;2023-02-01T03:15:42;3.20;99.90
66094;DHT22;52876;49.394;10.892;2023-02-01T03:18:14;3.20;99.90
66094;DHT22;52876;49.394;10.892;2023-02-01T03:20:45;3.20;99.90
66094;DHT22;52876;49.394;10.892;2023-02-01T03:23:15;3.20;99.90
66094;DHT22;52876;49.394;10.892;2023-02-01T03:28:10;3.30;99.90
66094;DHT22;52876;49.394;10.892;2023-02-01T03:30:39;3.30;99.90
66094;DHT22;52876;49.394;10.892;2023-02-01T03:33:10;3.30;99.90
66094;DHT22;52876;49.394;10.892;2023-02-01T03:35:42;3.30;99.90
66094;DHT22;52876;49.394;10.892;2023-02-01T03:38:20;3.50;99.90
66094;DHT22;52876;49.394;10.892;2023-02-01T03:40:52;3.40;99.90
66094;DHT22;52876;49.394;10.892;2023-02-01T03:43:19;3.20;99.90
66094;DHT22;52876;49.394;10.892;2023-02-01T03:45:51;3.10;99.90
66094;DHT22;52876;49.394;10.892;2023-02-01T03:48:18;3.40;99.90
66094;DHT22;52876;49.394;10.892;2023-02-01T03:50:48;3.40;99.90
66094;DHT22;52876;49.394;10.892;2023-02-01T03:55:44;3.50;99.90
66094;DHT22;52876;49.394;10.892;2023-02-01T03:58:13;3.50;99.90
66094;DHT22;52876;49.394;10.892;2023-02-01T04:03:06;3.50;99.90
66094;DHT22;52876;49.394;10.892;2023-02-01T04:05:34;3.50;99.90
66094;DHT22;52876;49.394;10.892;2023-02-01T04:12:55;3.50;99.90
66094;DHT22;52876;49.394;10.892;2023-02-01T04:30:06;3.50;99.90
66094;DHT22;52876;49.394;10.892;2023-02-01T04:39:54;3.50;99.90
66094;DHT22;52876;49.394;10.892;2023-02-01T04:42:21;3.40;99.90
66094;DHT22;52876;49.394;10.892;2023-02-01T04:47:16;3.40;99.90
66094;DHT22;52876;49.394;10.892;2023-02-01T04:57:01;3.20;99.90
66094;DHT22;52876;49.394;10.892;2023-02-01T05:04:20;3.20;99.90
66094;DHT22;52876;49.394;10.892;2023-02-01T05:18:57;3.40;99.90
66094;DHT22;52876;49.394;10.892;2023-02-01T05:21:26;3.30;99.90
66094;DHT22;52876;49.394;10.892;2023-02-01T05:23:51;3.20;99.90
66094;DHT22;52876;49.394;10.892;2023-02-01T05:31:11;3.30;99.90
66094;DHT22;52876;49.394;10.892;2023-02-01T05:38:32;3.30;99.90
66094;DHT22;52876;49.394;10.892;2023-02-01T05:45:52;3.30;99.90
66094;DHT22;52876;49.394;10.892;2023-02-01T05:55:38;3.10;99.90
66094;DHT22;52876;49.394;10.892;2023-02-01T05:58:04;3.10;99.90
66094;DHT22;52876;49.394;10.892;2023-02-01T06:05:24;3.10;99.90
66094;DHT22;52876;49.394;10.892;2023-02-01T06:12:46;2.90;99.90
66094;DHT22;52876;49.394;10.892;2023-02-01T06:15:12;2.80;99.90
66094;DHT22;52876;49.394;10.892;2023-02-01T06:20:07;2.80;99.90
66094;DHT22;52876;49.394;10.892;2023-02-01T06:29:55;2.70;99.90
66094;DHT22;52876;49.394;10.892;2023-02-01T06:46:58;2.60;99.90
66094;DHT22;52876;49.394;10.892;2023-02-01T06:54:16;2.60;99.90
66094;DHT22;52876;49.394;10.892;2023-02-01T06:59:10;2.70;99.90
66094;DHT22;52876;49.394;10.892;2023-02-01T07:04:04;2.80;99.90
66094;DHT22;52876;49.394;10.892;2023-02-01T07:08:57;2.90;99.90
66094;DHT22;52876;49.394;10.892;2023-02-01T07:13:49;2.90;99.90
66094;DHT22;52876;49.394;10.892;2023-02-01T07:16:17;3.00;99.90
66094;DHT22;52876;49.394;10.892;2023-02-01T07:18:49;3.10;99.90
66094;DHT22;52876;49.394;10.892;2023-02-01T07:21:19;3.10;99.90
66094;DHT22;52876;49.394;10.892;2023-02-01T07:26:14;3.20;99.90
66094;DHT22;52876;49.394;10.892;2023-02-01T07:31:11;3.20;99.90
66094;DHT22;52876;49.394;10.892;2023-02-01T07:33:37;3.50;99.90
66094;DHT22;52876;49.394;10.892;2023-02-01T07:36:06;3.10;99.90
66094;DHT22;52876;49.394;10.892;2023-02-01T07:38:34;3.20;99.90
66094;DHT22;52876;49.394;10.892;2023-02-01T07:41:02;3.40;99.90
66094;DHT22;52876;49.394;10.892;2023-02-01T07:43:29;3.30;99.90
66094;DHT22;52876;49.394;10.892;2023-02-01T07:45:56;3.30;99.90
66094;DHT22;52876;49.394;10.892;2023-02-01T07:48:23;3.30;99.90
66094;DHT22;52876;49.394;10.892;2023-02-01T07:50:57;3.30;99.90
66094;DHT22;52876;49.394;10.892;2023-02-01T07:55:50;3.40;99.90
66094;DHT22;52876;49.394;10.892;2023-02-01T08:12:57;3.50;99.90
66094;DHT22;52876;49.394;10.892;2023-02-01T08:17:50;3.40;99.90
66094;DHT22;52876;49.394;10.892;2023-02-01T08:20:17;3.40;99.90
66094;DHT22;52876;49.394;10.892;2023-02-01T08:22:44;3.60;99.90
66094;DHT22;52876;49.394;10.892;2023-02-01T08:25:10;3.50;99.90
66094;DHT22;52876;49.394;10.892;2023-02-01T08:30:06;3.70;99.90
66094;DHT22;52876;49.394;10.892;2023-02-01T08:47:13;4.20;99.90
66094;DHT22;52876;49.394;10.892;2023-02-01T09:04:18;3.70;99.90
66094;DHT22;52876;49.394;10.892;2023-02-01T09:21:23;3.50;99.90
66094;DHT22;52876;49.394;10.892;2023-02-01T09:23:50;3.60;99.90
66094;DHT22;52876;49.394;10.892;2023-02-01T09:26:16;3.70;99.90
66094;DHT22;52876;49.394;10.892;2023-02-01T09:33:35;3.30;99.90
66094;DHT22;52876;49.394;10.892;2023-02-01T09:36:02;4.10;99.90
66094;DHT22;52876;49.394;10.892;2023-02-01T09:38:30;3.40;99.90
66094;DHT22;52876;49.394;10.892;2023-02-01T09:40:58;3.00;99.90
66094;DHT22;52876;49.394;10.892;2023-02-01T09:46:12;3.10;99.90
66094;DHT22;52876;49.394;10.892;2023-02-01T09:48:43;3.30;99.90
66094;DHT22;52876;49.394;10.892;2023-02-01T09:51:14;3.50;99.90
66094;DHT22;52876;49.394;10.892;2023-02-01T09:53:44;3.70;99.90
66094;DHT22;52876;49.394;10.892;2023-02-01T09:56:14;3.80;99.90
66094;DHT22;52876;49.394;10.892;2023-02-01T09:58:43;3.80;99.90
66094;DHT22;52876;49.394;10.892;2023-02-01T10:01:16;3.80;99.90
66094;DHT22;52876;49.394;10.892;2023-02-01T10:03:44;4.10;99.90
66094;DHT22;52876;49.394;10.892;2023-02-01T10:09:17;4.40;99.90
66094;DHT22;52876;49.394;10.892;2023-02-01T10:11:56;4.50;99.90
66094;DHT22;52876;49.394;10.892;2023-02-01T10:14:38;4.40;99.90
66094;DHT22;52876;49.394;10.892;2023-02-01T10:17:16;4.60;99.90
66094;DHT22;52876;49.394;10.892;2023-02-01T10:19:51;4.50;99.90
66094;DHT22;52876;49.394;10.892;2023-02-01T10:22:33;4.40;99.90
66094;DHT22;52876;49.394;10.892;2023-02-01T10:25:12;4.40;99.90
66094;DHT22;52876;49.394;10.892;2023-02-01T10:27:40;4.30;99.90
66094;DHT22;52876;49.394;10.892;2023-02-01T10:30:16;4.60;99.90
66094;DHT22;52876;49.394;10.892;2023-02-01T10:32:48;4.30;99.90
66094;DHT22;52876;49.394;10.892;2023-02-01T10:35:17;4.40;99.90
66094;DHT22;52876;49.394;10.892;2023-02-01T10:37:45;4.70;99.90
66094;DHT22;52876;49.394;10.892;2023-02-01T10:40:16;4.50;99.90
66094;DHT22;52876;49.394;10.892;2023-02-01T10:42:44;4.50;99.90
66094;DHT22;52876;49.394;10.892;2023-02-01T10:45:13;4.50;99.90
66094;DHT22;52876;49.394;10.892;2023-02-01T10:50:16;4.70;99.90
66094;DHT22;52876;49.394;10.892;2023-02-01T10:52:47;4.70;99.90
66094;DHT22;52876;49.394;10.892;2023-02-01T10:55:34;4.80;99.90
66094;DHT22;52876;49.394;10.892;2023-02-01T10:58:01;4.70;99.90
66094;DHT22;52876;49.394;10.892;2023-02-01T11:00:37;4.70;99.90
66094;DHT22;52876;49.394;10.892;2023-02-01T11:03:30;4.80;99.90
66094;DHT22;52876;49.394;10.892;2023-02-01T11:10:57;4.70;99.90
66094;DHT22;52876;49.394;10.892;2023-02-01T11:13:28;4.60;99.90
66094;DHT22;52876;49.394;10.892;2023-02-01T11:15:57;4.80;99.90
66094;DHT22;52876;49.394;10.892;2023-02-01T11:18:27;4.60;99.90
66094;DHT22;52876;49.394;10.892;2023-02-01T11:20:55;4.60;99.90
66094;DHT22;52876;49.394;10.892;2023-02-01T11:23:23;4.70;99.90
66094;DHT22;52876;49.394;10.892;2023-02-01T11:25:54;4.70;99.90
66094;DHT22;52876;49.394;10.892;2023-02-01T11:28:23;4.70;99.90
66094;DHT22;52876;49.394;10.892;2023-02-01T11:30:54;4.70;99.90
66094;DHT22;52876;49.394;10.892;2023-02-01T11:33:25;4.80;99.90
66094;DHT22;52876;49.394;10.892;2023-02-01T11:35:52;4.70;99.90
66094;DHT22;52876;49.394;10.892;2023-02-01T11:38:22;4.70;99.90
66094;DHT22;52876;49.394;10.892;2023-02-01T11:40:53;4.80;99.90
66094;DHT22;52876;49.394;10.892;2023-02-01T11:43:24;4.80;99.90
66094;DHT22;52876;49.394;10.892;2023-02-01T11:45:57;4.90;99.90
66094;DHT22;52876;49.394;10.892;2023-02-01T11:48:24;5.00;99.90
66094;DHT22;52876;49.394;10.892;2023-02-01T11:51:04;5.00;99.90
66094;DHT22;52876;49.394;10.892;2023-02-01T11:53:40;5.00;99.90
66094;DHT22;52876;49.394;10.892;2023-02-01T11:56:17;5.00;99.90
66094;DHT22;52876;49.394;10.892;2023-02-01T11:59:02;5.10;99.90
66094;DHT22;52876;49.394;10.892;2023-02-01T12:01:41;5.10;99.90
66094;DHT22;52876;49.394;10.892;2023-02-01T12:07:18;5.10;99.90
66094;DHT22;52876;49.394;10.892;2023-02-01T12:09:53;5.10;99.90
66094;DHT22;52876;49.394;10.892;2023-02-01T12:12:33;5.00;99.90
66094;DHT22;52876;49.394;10.892;2023-02-01T12:15:16;5.40;99.90
66094;DHT22;52876;49.394;10.892;2023-02-01T12:18:01;4.90;99.90
66094;DHT22;52876;49.394;10.892;2023-02-01T12:20:47;4.90;99.90
66094;DHT22;52876;49.394;10.892;2023-02-01T12:23:30;4.90;99.90
66094;DHT22;52876;49.394;10.892;2023-02-01T12:26:07;4.90;99.90
66094;DHT22;52876;49.394;10.892;2023-02-01T12:29:00;4.80;99.90
66094;DHT22;52876;49.394;10.892;2023-02-01T12:31:43;4.80;99.90
66094;DHT22;52876;49.394;10.892;2023-02-01T12:34:24;4.80;99.90
66094;DHT22;52876;49.394;10.892;2023-02-01T12:36:58;4.80;99.90
66094;DHT22;52876;49.394;10.892;2023-02-01T12:39:31;5.00;99.90
66094;DHT22;52876;49.394;10.892;2023-02-01T12:42:01;4.90;99.90
66094;DHT22;52876;49.394;10.892;2023-02-01T12:44:41;4.80;99.90
66094;DHT22;52876;49.394;10.892;2023-02-01T12:47:16;4.70;99.90
66094;DHT22;52876;49.394;10.892;2023-02-01T12:49:53;4.70;99.90
66094;DHT22;52876;49.394;10.892;2023-02-01T12:52:25;4.50;99.90
66094;DHT22;52876;49.394;10.892;2023-02-01T12:54:57;4.30;99.90
66094;DHT22;52876;49.394;10.892;2023-02-01T12:57:27;4.20;99.90
66094;DHT22;52876;49.394;10.892;2023-02-01T13:00:06;4.10;99.90
66094;DHT22;52876;49.394;10.892;2023-02-01T13:02:39;4.40;99.90
66094;DHT22;52876;49.394;10.892;2023-02-01T13:05:14;4.30;99.90
66094;DHT22;52876;49.394;10.892;2023-02-01T13:07:46;4.40;99.90
66094;DHT22;52876;49.394;10.892;2023-02-01T13:10:18;4.50;99.90
66094;DHT22;52876;49.394;10.892;2023-02-01T13:12:51;4.50;99.90
66094;DHT22;52876;49.394;10.892;2023-02-01T13:15:24;4.50;99.90
66094;DHT22;52876;49.394;10.892;2023-02-01T13:17:52;4.60;99.90
66094;DHT22;52876;49.394;10.892;2023-02-01T13:20:24;4.40;99.90
66094;DHT22;52876;49.394;10.892;2023-02-01T13:22:54;4.20;99.90
66094;DHT22;52876;49.394;10.892;2023-02-01T13:25:30;4.20;99.90
66094;DHT22;52876;49.394;10.892;2023-02-01T13:28:04;3.80;99.90
66094;DHT22;52876;49.394;10.892;2023-02-01T13:30:43;3.40;99.90
66094;DHT22;52876;49.394;10.892;2023-02-01T13:33:32;3.70;99.90
66094;DHT22;52876;49.394;10.892;2023-02-01T13:42:01;3.80;99.90
66094;DHT22;52876;49.394;10.892;2023-02-01T13:44:30;3.80;99.90
66094;DHT22;52876;49.394;10.892;2023-02-01T13:47:02;3.80;99.90
66094;DHT22;52876;49.394;10.892;2023-02-01T13:51:58;3.90;99.90
66094;DHT22;52876;49.394;10.892;2023-02-01T13:54:32;4.00;99.90
66094;DHT22;52876;49.394;10.892;2023-02-01T13:56:59;4.10;99.90
66094;DHT22;52876;49.394;10.892;2023-02-01T14:00:05;4.20;99.90
66094;DHT22;52876;49.394;10.892;2023-02-01T14:08:39;4.30;99.90
66094;DHT22;52876;49.394;10.892;2023-02-01T14:11:41;4.40;99.90
66094;DHT22;52876;49.394;10.892;2023-02-01T14:14:38;4.40;99.90
66094;DHT22;52876;49.394;10.892;2023-02-01T14:17:34;4.50;99.90
66094;DHT22;52876;49.394;10.892;2023-02-01T14:23:15;4.30;99.90
66094;DHT22;52876;49.394;10.892;2023-02-01T14:25:42;4.60;99.90
66094;DHT22;52876;49.394;10.892;2023-02-01T14:28:28;4.60;99.90
66094;DHT22;52876;49.394;10.892;2023-02-01T14:30:57;4.40;99.90
66094;DHT22;52876;49.394;10.892;2023-02-01T14:33:25;4.50;99.90
66094;DHT22;52876;49.394;10.892;2023-02-01T14:36:05;4.30;99.90
66094;DHT22;52876;49.394;10.892;2023-02-01T14:38:32;4.20;99.90
66094;DHT22;52876;49.394;10.892;2023-02-01T14:44:26;4.10;99.90
66094;DHT22;52876;49.394;10.892;2023-02-01T14:47:09;4.10;99.90
66094;DHT22;52876;49.394;10.892;2023-02-01T14:49:38;4.10;99.90
66094;DHT22;52876;49.394;10.892;2023-02-01T14:52:13;4.10;99.90
66094;DHT22;52876;49.394;10.892;2023-02-01T14:54:39;4.10;99.90
66094;DHT22;52876;49.394;10.892;2023-02-01T14:57:13;4.10;99.90
66094;DHT22;52876;49.394;10.892;2023-02-01T14:59:45;4.10;99.90
66094;DHT22;52876;49.394;10.892;2023-02-01T15:02:20;4.00;99.90
66094;DHT22;52876;49.394;10.892;2023-02-01T15:04:53;4.20;99.90
66094;DHT22;52876;49.394;10.892;2023-02-01T15:07:22;4.20;99.90
66094;DHT22;52876;49.394;10.892;2023-02-01T15:12:22;4.20;99.90
66094;DHT22;52876;49.394;10.892;2023-02-01T15:15:11;4.30;99.90
66094;DHT22;52876;49.394;10.892;2023-02-01T15:17:39;4.30;99.90
66094;DHT22;52876;49.394;10.892;2023-02-01T15:20:12;4.30;99.90
66094;DHT22;52876;49.394;10.892;2023-02-01T15:25:18;4.50;99.90
66094;DHT22;52876;49.394;10.892;2023-02-01T15:30:17;4.30;99.90
66094;DHT22;52876;49.394;10.892;2023-02-01T15:35:40;4.30;99.90
66094;DHT22;52876;49.394;10.892;2023-02-01T15:38:34;4.40;99.90
66094;DHT22;52876;49.394;10.892;2023-02-01T15:41:05;4.30;99.90
66094;DHT22;52876;49.394;10.892;2023-02-01T15:43:34;4.40;99.90
66094;DHT22;52876;49.394;10.892;2023-02-01T15:46:06;4.50;99.90
66094;DHT22;52876;49.394;10.892;2023-02-01T15:48:35;4.30;99.90
66094;DHT22;52876;49.394;10.892;2023-02-01T15:51:03;2.60;99.90
66094;DHT22;52876;49.394;10.892;2023-02-01T15:56:00;4.20;99.90
66094;DHT22;52876;49.394;10.892;2023-02-01T15:58:27;4.30;99.90
66094;DHT22;52876;49.394;10.892;2023-02-01T16:03:32;4.30;99.90
66094;DHT22;52876;49.394;10.892;2023-02-01T16:06:02;4.20;99.90
66094;DHT22;52876;49.394;10.892;2023-02-01T16:08:29;4.20;99.90
66094;DHT22;52876;49.394;10.892;2023-02-01T16:11:10;4.20;99.90
66094;DHT22;52876;49.394;10.892;2023-02-01T16:13:39;4.30;99.90
66094;DHT22;52876;49.394;10.892;2023-02-01T16:16:07;4.20;99.90
66094;DHT22;52876;49.394;10.892;2023-02-01T16:18:35;4.30;99.90
66094;DHT22;52876;49.394;10.892;2023-02-01T16:21:02;4.30;99.90
66094;DHT22;52876;49.394;10.892;2023-02-01T16:28:21;4.30;99.90
66094;DHT22;52876;49.394;10.892;2023-02-01T16:33:18;4.20;99.90
66094;DHT22;52876;49.394;10.892;2023-02-01T16:38:15;4.30;99.90
66094;DHT22;52876;49.394;10.892;2023-02-01T16:40:42;4.30;99.90
66094;DHT22;52876;49.394;10.892;2023-02-01T16:43:12;4.30;99.90
66094;DHT22;52876;49.394;10.892;2023-02-01T16:48:06;4.30;99.90
66094;DHT22;52876;49.394;10.892;2023-02-01T16:50:32;4.30;99.90
66094;DHT22;52876;49.394;10.892;2023-02-01T16:53:01;4.30;99.90
66094;DHT22;52876;49.394;10.892;2023-02-01T16:55:28;4.30;99.90
66094;DHT22;52876;49.394;10.892;2023-02-01T16:57:54;4.30;99.90
66094;DHT22;52876;49.394;10.892;2023-02-01T17:00:21;4.30;99.90
66094;DHT22;52876;49.394;10.892;2023-02-01T17:02:48;4.00;99.90
66094;DHT22;52876;49.394;10.892;2023-02-01T17:10:17;4.30;99.90
66094;DHT22;52876;49.394;10.892;2023-02-01T17:12:47;4.30;99.90
66094;DHT22;52876;49.394;10.892;2023-02-01T17:17:40;4.30;99.90
66094;DHT22;52876;49.394;10.892;2023-02-01T17:20:07;4.30;99.90
66094;DHT22;52876;49.394;10.892;2023-02-01T17:25:00;2.50;99.90
66094;DHT22;52876;49.394;10.892;2023-02-01T17:27:29;4.30;99.90
66094;DHT22;52876;49.394;10.892;2023-02-01T17:32:23;4.30;99.90
66094;DHT22;52876;49.394;10.892;2023-02-01T17:34:49;4.30;99.90
66094;DHT22;52876;49.394;10.892;2023-02-01T17:37:26;4.30;99.90
66094;DHT22;52876;49.394;10.892;2023-02-01T17:39:52;4.20;99.90
66094;DHT22;52876;49.394;10.892;2023-02-01T17:42:20;4.30;99.90
66094;DHT22;52876;49.394;10.892;2023-02-01T17:52:09;4.40;99.90
66094;DHT22;52876;49.394;10.892;2023-02-01T17:57:10;4.40;99.90
66094;DHT22;52876;49.394;10.892;2023-02-01T18:02:17;3.90;99.90
66094;DHT22;52876;49.394;10.892;2023-02-01T18:04:43;4.50;99.90
66094;DHT22;52876;49.394;10.892;2023-02-01T18:07:08;4.40;99.90
66094;DHT22;52876;49.394;10.892;2023-02-01T18:12:04;4.40;99.90
66094;DHT22;52876;49.394;10.892;2023-02-01T18:14:29;4.40;99.90
66094;DHT22;52876;49.394;10.892;2023-02-01T18:16:57;4.40;99.90
66094;DHT22;52876;49.394;10.892;2023-02-01T18:19:23;4.40;99.90
66094;DHT22;52876;49.394;10.892;2023-02-01T18:21:49;4.40;99.90
66094;DHT22;52876;49.394;10.892;2023-02-01T18:24:16;4.50;99.90
66094;DHT22;52876;49.394;10.892;2023-02-01T18:26:43;4.50;99.90
66094;DHT22;52876;49.394;10.892;2023-02-01T18:29:08;4.40;99.90
66094;DHT22;52876;49.394;10.892;2023-02-01T18:31:39;4.50;99.90
66094;DHT22;52876;49.394;10.892;2023-02-01T18:34:08;4.50;99.90
66094;DHT22;52876;49.394;10.892;2023-02-01T18:36:37;4.50;99.90
66094;DHT22;52876;49.394;10.892;2023-02-01T18:39:03;4.60;99.90
66094;DHT22;52876;49.394;10.892;2023-02-01T18:41:30;4.50;99.90
66094;DHT22;52876;49.394;10.892;2023-02-01T18:43:56;4.60;99.90
66094;DHT22;52876;49.394;10.892;2023-02-01T18:46:23;4.40;99.90
66094;DHT22;52876;49.394;10.892;2023-02-01T18:51:16;4.50;99.90
66094;DHT22;52876;49.394;10.892;2023-02-01T18:53:44;4.50;99.90
66094;DHT22;52876;49.394;10.892;2023-02-01T18:56:11;4.60;99.90
66094;DHT22;52876;49.394;10.892;2023-02-01T18:58:37;4.60;99.90
66094;DHT22;52876;49.394;10.892;2023-02-01T19:01:05;4.50;99.90
66094;DHT22;52876;49.394;10.892;2023-02-01T19:10:54;4.50;99.90
66094;DHT22;52876;49.394;10.892;2023-02-01T19:13:20;4.50;99.90
66094;DHT22;52876;49.394;10.892;2023-02-01T19:15:46;4.50;99.90
66094;DHT22;52876;49.394;10.892;2023-02-01T19:18:11;4.40;99.90
66094;DHT22;52876;49.394;10.892;2023-02-01T19:20:39;4.30;99.90
66094;DHT22;52876;49.394;10.892;2023-02-01T19:23:04;4.50;99.90
66094;DHT22;52876;49.394;10.892;2023-02-01T19:27:59;4.60;99.90
66094;DHT22;52876;49.394;10.892;2023-02-01T19:30:24;4.60;99.90
66094;DHT22;52876;49.394;10.892;2023-02-01T19:35:20;4.70;99.90
66094;DHT22;52876;49.394;10.892;2023-02-01T19:37:48;4.60;99.90
66094;DHT22;52876;49.394;10.892;2023-02-01T19:40:17;4.50;99.90
66094;DHT22;52876;49.394;10.892;2023-02-01T19:42:44;4.50;99.90
66094;DHT22;52876;49.394;10.892;2023-02-01T19:45:13;4.50;99.90
66094;DHT22;52876;49.394;10.892;2023-02-01T19:47:41;4.60;99.90
66094;DHT22;52876;49.394;10.892;2023-02-01T19:50:08;4.60;99.90
66094;DHT22;52876;49.394;10.892;2023-02-01T19:52:36;4.60;99.90
66094;DHT22;52876;49.394;10.892;2023-02-01T19:55:02;4.40;99.90
66094;DHT22;52876;49.394;10.892;2023-02-01T19:57:30;4.60;99.90
66094;DHT22;52876;49.394;10.892;2023-02-01T19:59:56;4.60;99.90
66094;DHT22;52876;49.394;10.892;2023-02-01T20:02:25;4.50;99.90
66094;DHT22;52876;49.394;10.892;2023-02-01T20:04:50;4.40;99.90
66094;DHT22;52876;49.394;10.892;2023-02-01T20:07:17;4.70;99.90
66094;DHT22;52876;49.394;10.892;2023-02-01T20:09:43;4.50;99.90
66094;DHT22;52876;49.394;10.892;2023-02-01T20:12:11;4.40;99.90
66094;DHT22;52876;49.394;10.892;2023-02-01T20:14:37;4.50;99.90
66094;DHT22;52876;49.394;10.892;2023-02-01T20:17:05;4.20;99.90
66094;DHT22;52876;49.394;10.892;2023-02-01T20:36:46;4.30;99.90
66094;DHT22;52876;49.394;10.892;2023-02-01T20:53:52;4.40;99.90
66094;DHT22;52876;49.394;10.892;2023-02-01T21:01:12;4.40;99.90
66094;DHT22;52876;49.394;10.892;2023-02-01T21:03:38;4.40;99.90
66094;DHT22;52876;49.394;10.892;2023-02-01T21:06:05;4.40;99.90
66094;DHT22;52876;49.394;10.892;2023-02-01T21:08:31;4.40;99.90
66094;DHT22;52876;49.394;10.892;2023-02-01T21:11:01;4.40;99.90
66094;DHT22;52876;49.394;10.892;2023-02-01T21:13:29;4.40;99.90
66094;DHT22;52876;49.394;10.892;2023-02-01T21:23:16;4.40;99.90
66094;DHT22;52876;49.394;10.892;2023-02-01T21:25:42;4.40;99.90
66094;DHT22;52876;49.394;10.892;2023-02-01T21:28:10;4.50;99.90
66094;DHT22;52876;49.394;10.892;2023-02-01T21:33:04;4.60;99.90
66094;DHT22;52876;49.394;10.892;2023-02-01T21:42:50;4.70;99.90
66094;DHT22;52876;49.394;10.892;2023-02-01T21:45:18;4.60;99.90
66094;DHT22;52876;49.394;10.892;2023-02-01T21:50:14;4.70;99.90
66094;DHT22;52876;49.394;10.892;2023-02-01T21:52:43;4.70;99.90
66094;DHT22;52876;49.394;10.892;2023-02-01T21:55:09;4.60;99.90
66094;DHT22;52876;49.394;10.892;2023-02-01T21:57:37;4.50;99.90
66094;DHT22;52876;49.394;10.892;2023-02-01T22:00:04;4.60;99.90
66094;DHT22;52876;49.394;10.892;2023-02-01T22:02:32;4.50;99.90
66094;DHT22;52876;49.394;10.892;2023-02-01T22:19:38;4.60;99.90
66094;DHT22;52876;49.394;10.892;2023-02-01T22:31:50;4.50;99.90
66094;DHT22;52876;49.394;10.892;2023-02-01T22:36:46;4.40;99.90
66094;DHT22;52876;49.394;10.892;2023-02-01T22:41:39;4.40;99.90
66094;DHT22;52876;49.394;10.892;2023-02-01T22:44:05;4.90;99.90
66094;DHT22;52876;49.394;10.892;2023-02-01T22:46:33;4.40;99.90
66094;DHT22;52876;49.394;10.892;2023-02-01T22:48:59;4.40;99.90
66094;DHT22;52876;49.394;10.892;2023-02-01T22:51:26;4.40;99.90
66094;DHT22;52876;49.394;10.892;2023-02-01T22:53:53;4.30;99.90
66094;DHT22;52876;49.394;10.892;2023-02-01T22:56:19;4.30;99.90
66094;DHT22;52876;49.394;10.892;2023-02-01T22:58:44;4.40;99.90
66094;DHT22;52876;49.394;10.892;2023-02-01T23:01:13;4.40;99.90
66094;DHT22;52876;49.394;10.892;2023-02-01T23:03:39;4.60;99.90
66094;DHT22;52876;49.394;10.892;2023-02-01T23:06:06;4.60;99.90
66094;DHT22;52876;49.394;10.892;2023-02-01T23:08:32;4.60;99.90
66094;DHT22;52876;49.394;10.892;2023-02-01T23:11:02;4.70;99.90
66094;DHT22;52876;49.394;10.892;2023-02-01T23:13:28;4.70;99.90
66094;DHT22;52876;49.394;10.892;2023-02-01T23:25:47;4.80;99.90
66094;DHT22;52876;49.394;10.892;2023-02-01T23:28:14;4.70;99.90
66094;DHT22;52876;49.394;10.892;2023-02-01T23:30:41;4.70;99.90
66094;DHT22;52876;49.394;10.892;2023-02-01T23:33:07;4.60;99.90
66094;DHT22;52876;49.394;10.892;2023-02-01T23:45:19;4.60;99.90
66094;DHT22;52876;49.394;10.892;2023-02-01T23:50:13;4.80;99.90
